Time;durP1;ratioP1;P1;durP2;ratioP2;P2;SDS_P1;SDS_P2;PMS_P1;PMS_P2;Temp;Humidity;BMP_temperature;BMP_pressure;BME280_temperature;BME280_humidity;BME280_pressure;Samples;Min_cycle;Max_cycle;Signal;HPM_P1;HPM_P2
2024/03/21 00:00:14;;;;;;;4.65;3.72;;;13.60;96.70;;;;;;4898545;29;20082;-73
2024/03/21 00:02:46;;;;;;;4.30;3.65;;;13.40;96.70;;;;;;4911047;29;20060;-73
2024/03/21 00:05:15;;;;;;;5.15;3.42;;;13.50;96.70;;;;;;4928042;29;20051;-73
2024/03/21 00:07:46;;;;;;;5.35;3.17;;;13.40;96.70;;;;;;4924391;29;20053;-73
2024/03/21 00:10:16;;;;;;;3.75;3.22;;;13.50;96.70;;;;;;4904268;29;20537;-73
2024/03/21 00:12:46;;;;;;;5.45;3.47;;;13.20;96.70;;;;;;4931462;29;20055;-73
2024/03/21 00:15:15;;;;;;;4.43;3.30;;;13.20;96.70;;;;;;4931451;29;20055;-73
2024/03/21 00:17:45;;;;;;;5.05;3.05;;;13.10;96.70;;;;;;4898975;29;20047;-73
2024/03/21 00:20:18;;;;;;;4.28;3.42;;;13.10;96.70;;;;;;4931800;29;20431;-73
2024/03/21 00:22:46;;;;;;;4.57;3.42;;;13.10;96.70;;;;;;4920647;29;20044;-73
2024/03/21 00:25:17;;;;;;;4.35;3.15;;;13.10;96.70;;;;;;4902894;29;20063;-74
2024/03/21 00:27:45;;;;;;;4.72;2.88;;;13.00;96.70;;;;;;4920931;29;20059;-74
2024/03/21 00:30:13;;;;;;;8.10;4.18;;;12.90;96.70;;;;;;4921475;29;20071;-74
2024/03/21 00:32:41;;;;;;;4.15;3.10;;;12.90;96.70;;;;;;4911835;29;20138;-73
2024/03/21 00:35:09;;;;;;;3.25;2.95;;;12.80;96.70;;;;;;4935069;29;20140;-74
2024/03/21 00:37:38;;;;;;;4.50;2.60;;;12.80;96.70;;;;;;4918555;29;20051;-74
2024/03/21 00:40:06;;;;;;;4.50;2.80;;;12.80;96.70;;;;;;4919646;29;20051;-74
2024/03/21 00:42:42;;;;;;;3.45;2.65;;;12.70;96.70;;;;;;4945845;29;20114;-74
2024/03/21 00:45:10;;;;;;;4.13;3.33;;;12.60;96.70;;;;;;4948552;29;20552;-74
2024/03/21 00:47:38;;;;;;;4.35;3.08;;;12.70;96.70;;;;;;4901931;29;20138;-74
2024/03/21 00:50:08;;;;;;;3.75;3.08;;;12.70;96.70;;;;;;4933348;29;20456;-74
2024/03/21 00:52:35;;;;;;;3.83;2.67;;;12.70;96.70;;;;;;4938133;29;20126;-74
2024/03/21 00:55:06;;;;;;;3.80;3.30;;;12.60;96.70;;;;;;4947964;29;20146;-74
2024/03/21 00:57:35;;;;;;;8.82;5.82;;;12.60;96.70;;;;;;4918750;29;20047;-74
2024/03/21 01:00:07;;;;;;;7.00;4.50;;;12.70;96.70;;;;;;4902588;29;20138;-74
2024/03/21 01:02:36;;;;;;;6.68;3.95;;;12.70;96.70;;;;;;4931940;29;20055;-73
2024/03/21 01:05:03;;;;;;;5.13;3.30;;;12.80;96.70;;;;;;4927698;29;20496;-73
2024/03/21 01:07:31;;;;;;;3.88;3.13;;;12.80;96.70;;;;;;4932427;29;20075;-73
2024/03/21 01:10:00;;;;;;;4.93;3.53;;;12.60;96.70;;;;;;4948249;28;20043;-74
2024/03/21 01:12:30;;;;;;;5.28;3.45;;;12.50;96.70;;;;;;4901199;29;20063;-74
2024/03/21 01:15:00;;;;;;;6.60;4.55;;;12.70;96.70;;;;;;4932385;29;20047;-74
2024/03/21 01:17:28;;;;;;;6.50;4.85;;;12.60;96.70;;;;;;4936643;29;20055;-73
2024/03/21 01:19:55;;;;;;;6.50;4.90;;;12.50;96.70;;;;;;4933499;29;20043;-73
2024/03/21 01:22:24;;;;;;;7.30;4.53;;;12.50;96.70;;;;;;4949447;29;20058;-73
2024/03/21 01:24:53;;;;;;;5.07;3.50;;;12.40;96.70;;;;;;4916266;29;20147;-73
2024/03/21 01:27:20;;;;;;;5.43;3.30;;;12.40;96.70;;;;;;4907453;29;20110;-74
2024/03/21 01:29:52;;;;;;;5.32;3.65;;;12.50;96.70;;;;;;4911605;29;20046;-73
2024/03/21 01:32:21;;;;;;;5.55;4.00;;;12.50;96.70;;;;;;4947159;29;20047;-74
2024/03/21 01:34:49;;;;;;;5.60;3.88;;;12.40;96.70;;;;;;4911470;29;20078;-73
2024/03/21 01:37:18;;;;;;;3.78;3.20;;;12.40;96.70;;;;;;4921681;29;20075;-73
2024/03/21 01:39:45;;;;;;;4.50;3.45;;;12.40;96.70;;;;;;4932539;29;20396;-74
2024/03/21 01:42:17;;;;;;;4.28;2.97;;;12.40;96.70;;;;;;4943262;29;20058;-73
2024/03/21 01:44:59;;;;;;;3.72;2.85;;;12.40;96.70;;;;;;4949192;29;20109;-73
2024/03/21 01:47:29;;;;;;;4.45;3.05;;;12.30;96.70;;;;;;4945697;29;20048;-74
2024/03/21 01:49:57;;;;;;;4.70;2.72;;;12.30;96.70;;;;;;4930266;29;20047;-72
2024/03/21 01:52:26;;;;;;;4.70;3.20;;;12.30;96.70;;;;;;4931889;29;20090;-74
2024/03/21 01:54:57;;;;;;;3.35;2.97;;;12.30;96.70;;;;;;4931473;29;20051;-73
2024/03/21 01:57:24;;;;;;;4.70;2.90;;;12.20;96.70;;;;;;4932460;29;20055;-73
2024/03/21 01:59:56;;;;;;;4.50;3.25;;;12.40;96.70;;;;;;4932849;29;20559;-73
2024/03/21 02:02:25;;;;;;;6.75;3.40;;;12.20;96.70;;;;;;4922136;29;20082;-73
2024/03/21 02:04:55;;;;;;;3.53;3.22;;;12.10;96.70;;;;;;4932217;29;20118;-74
2024/03/21 02:07:25;;;;;;;4.53;2.92;;;12.10;96.70;;;;;;4924383;29;20058;-74
2024/03/21 02:09:55;;;;;;;3.92;3.22;;;12.10;96.70;;;;;;4949213;29;20070;-74
2024/03/21 02:12:51;;;;;;;3.83;3.25;;;12.10;96.70;;;;;;4916814;29;20697;-73
2024/03/21 02:15:21;;;;;;;3.50;2.80;;;12.10;96.70;;;;;;4867033;29;20086;-73
2024/03/21 02:17:53;;;;;;;3.95;3.08;;;12.20;96.70;;;;;;4913927;29;20788;-74
2024/03/21 02:20:26;;;;;;;3.55;3.08;;;12.20;96.70;;;;;;4917215;29;20142;-73
2024/03/21 02:22:55;;;;;;;5.53;3.20;;;12.10;96.70;;;;;;4933082;29;20058;-73
2024/03/21 02:25:23;;;;;;;3.90;3.53;;;12.10;96.70;;;;;;4932931;29;20051;-73
2024/03/21 02:27:53;;;;;;;4.05;3.50;;;12.10;96.70;;;;;;4927759;29;20047;-73
2024/03/21 02:30:21;;;;;;;4.72;3.50;;;12.00;96.70;;;;;;4905654;29;20082;-73
2024/03/21 02:32:51;;;;;;;3.67;2.92;;;11.90;96.70;;;;;;4915905;29;20058;-73
2024/03/21 02:35:21;;;;;;;3.80;3.17;;;11.90;96.70;;;;;;4913812;29;20062;-73
2024/03/21 02:37:50;;;;;;;5.63;3.30;;;11.90;96.70;;;;;;4898559;29;20054;-73
2024/03/21 02:40:22;;;;;;;3.05;2.75;;;11.90;96.70;;;;;;4916583;29;20469;-73
2024/03/21 02:42:51;;;;;;;5.75;3.03;;;11.90;96.70;;;;;;4916076;29;20051;-73
2024/03/21 02:45:20;;;;;;;4.53;3.28;;;11.90;96.70;;;;;;4917069;29;20051;-74
2024/03/21 02:47:47;;;;;;;4.28;2.90;;;11.90;96.70;;;;;;4916985;29;20062;-74
2024/03/21 02:50:17;;;;;;;4.82;3.00;;;11.90;96.70;;;;;;4915866;29;20576;-74
2024/03/21 02:52:44;;;;;;;4.22;3.65;;;11.90;96.70;;;;;;4901625;29;20047;-73
2024/03/21 02:55:11;;;;;;;6.43;4.60;;;11.90;96.70;;;;;;4917030;29;20682;-74
2024/03/21 02:57:40;;;;;;;6.90;3.75;;;11.80;96.70;;;;;;4948868;29;20077;-74
2024/03/21 03:00:09;;;;;;;5.88;3.80;;;11.80;96.70;;;;;;4948285;29;20054;-74
2024/03/21 03:02:36;;;;;;;5.85;3.70;;;11.80;96.70;;;;;;4916574;29;20194;-74
2024/03/21 03:05:05;;;;;;;5.53;3.67;;;11.70;96.70;;;;;;4930386;29;20058;-73
2024/03/21 03:07:33;;;;;;;5.05;3.65;;;11.70;96.70;;;;;;4942616;29;20051;-73
2024/03/21 03:10:00;;;;;;;4.70;3.70;;;11.70;96.70;;;;;;4903068;29;20040;-73
2024/03/21 03:12:27;;;;;;;4.53;3.65;;;11.70;96.70;;;;;;4901347;29;20062;-74
2024/03/21 03:14:56;;;;;;;5.82;3.53;;;11.70;96.70;;;;;;4916903;29;20134;-74
2024/03/21 03:17:25;;;;;;;4.45;3.30;;;11.70;96.70;;;;;;4916430;29;20145;-74
2024/03/21 03:19:53;;;;;;;3.70;3.00;;;11.70;96.70;;;;;;4898058;29;20055;-73
2024/03/21 03:22:22;;;;;;;6.90;3.28;;;11.70;96.70;;;;;;4916705;29;20611;-73
2024/03/21 03:24:50;;;;;;;3.28;2.95;;;11.60;96.70;;;;;;4925339;29;20047;-73
2024/03/21 03:27:18;;;;;;;7.50;3.10;;;11.50;96.70;;;;;;4923247;29;20058;-73
2024/03/21 03:29:47;;;;;;;4.13;2.63;;;11.60;96.70;;;;;;4912487;29;20044;-74
2024/03/21 03:32:21;;;;;;;3.63;2.60;;;11.40;96.70;;;;;;4912963;29;20055;-73
2024/03/21 03:37:36;;;;;;;4.60;2.97;;;11.40;96.70;;;;;;4916088;29;20051;-73
2024/03/21 03:40:06;;;;;;;3.70;3.03;;;11.40;96.70;;;;;;4931848;29;20043;-73
2024/03/21 03:42:33;;;;;;;4.60;2.70;;;11.40;96.70;;;;;;4930887;29;20055;-74
2024/03/21 03:45:00;;;;;;;4.70;2.85;;;11.40;96.70;;;;;;4899991;29;20606;-74
2024/03/21 03:47:30;;;;;;;5.30;2.60;;;11.40;96.70;;;;;;4910433;29;20043;-73
2024/03/21 03:50:00;;;;;;;4.10;3.30;;;11.40;96.70;;;;;;4892959;29;20043;-73
2024/03/21 03:52:27;;;;;;;3.85;2.83;;;11.40;96.70;;;;;;4916259;29;20054;-74
2024/03/21 03:54:55;;;;;;;4.38;3.20;;;11.30;96.70;;;;;;4948365;29;20123;-73
2024/03/21 03:57:25;;;;;;;5.05;3.42;;;11.40;96.70;;;;;;4932003;29;20161;-73
2024/03/21 03:59:53;;;;;;;5.07;3.83;;;11.40;96.70;;;;;;4930206;29;20035;-73
2024/03/21 04:02:21;;;;;;;5.25;3.85;;;11.40;96.70;;;;;;4935206;29;20151;-74
2024/03/21 04:04:51;;;;;;;4.38;3.40;;;11.40;96.70;;;;;;4925383;29;20053;-73
2024/03/21 04:07:21;;;;;;;4.43;2.92;;;11.30;96.70;;;;;;4904429;29;20051;-73
2024/03/21 04:09:49;;;;;;;4.53;3.00;;;11.30;96.70;;;;;;4919181;29;20077;-73
2024/03/21 04:12:17;;;;;;;3.45;2.88;;;11.30;96.70;;;;;;4934790;29;20525;-74
2024/03/21 04:14:47;;;;;;;4.38;2.65;;;11.30;96.70;;;;;;4931711;29;20107;-73
2024/03/21 04:17:14;;;;;;;3.42;2.97;;;11.30;96.70;;;;;;4934960;29;20126;-73
2024/03/21 04:19:43;;;;;;;4.65;3.13;;;11.20;96.70;;;;;;4944830;29;20071;-73
2024/03/21 04:22:12;;;;;;;4.72;3.08;;;11.20;96.70;;;;;;4950721;29;20062;-73
2024/03/21 04:24:41;;;;;;;5.20;3.45;;;11.20;96.70;;;;;;4950806;29;20155;-73
2024/03/21 04:27:09;;;;;;;4.57;3.40;;;11.10;96.70;;;;;;4935031;29;20051;-73
2024/03/21 04:29:36;;;;;;;8.25;3.65;;;11.20;96.70;;;;;;4903189;29;20073;-73
2024/03/21 04:32:04;;;;;;;5.88;4.18;;;11.20;96.70;;;;;;4901910;29;20051;-73
2024/03/21 04:34:31;;;;;;;6.22;3.88;;;11.10;96.70;;;;;;4921767;29;20047;-74
2024/03/21 04:36:59;;;;;;;7.18;4.43;;;11.10;96.70;;;;;;4934905;29;20138;-73
2024/03/21 04:39:29;;;;;;;5.10;4.28;;;11.00;96.70;;;;;;4919319;29;20055;-73
2024/03/21 04:41:58;;;;;;;6.65;4.38;;;11.00;96.70;;;;;;4920608;29;20123;-73
2024/03/21 04:44:26;;;;;;;6.70;4.05;;;11.00;96.70;;;;;;4919417;29;20649;-73
2024/03/21 04:46:53;;;;;;;6.75;4.40;;;11.00;96.70;;;;;;4951284;29;20657;-72
2024/03/21 04:49:21;;;;;;;6.35;4.80;;;11.10;96.70;;;;;;4932144;29;20055;-73
2024/03/21 04:51:49;;;;;;;8.18;4.93;;;11.10;96.70;;;;;;4899325;29;20091;-74
2024/03/21 04:54:19;;;;;;;5.97;4.63;;;11.10;96.70;;;;;;4899991;29;20055;-73
2024/03/21 04:56:50;;;;;;;7.85;4.85;;;11.10;96.70;;;;;;4921769;29;20047;-73
2024/03/21 04:59:17;;;;;;;5.70;4.45;;;11.10;96.70;;;;;;4918731;29;20122;-73
2024/03/21 05:01:45;;;;;;;7.25;4.35;;;11.00;96.70;;;;;;4902629;29;20047;-73
2024/03/21 05:04:13;;;;;;;5.75;4.70;;;10.90;96.70;;;;;;4916586;29;20047;-73
2024/03/21 05:06:40;;;;;;;5.00;3.95;;;10.90;96.70;;;;;;4941752;28;20055;-73
2024/03/21 05:09:07;;;;;;;7.75;4.57;;;10.90;96.70;;;;;;4932355;29;20051;-73
2024/03/21 05:11:37;;;;;;;6.95;4.97;;;10.80;96.70;;;;;;4915932;29;20051;-74
2024/03/21 05:14:07;;;;;;;9.35;5.30;;;10.90;96.70;;;;;;4932139;29;20047;-73
2024/03/21 05:16:35;;;;;;;7.13;4.88;;;10.90;96.70;;;;;;4910667;29;20051;-74
2024/03/21 05:19:02;;;;;;;7.78;5.05;;;10.90;96.70;;;;;;4915802;29;20080;-73
2024/03/21 05:21:30;;;;;;;8.50;4.70;;;10.80;96.70;;;;;;4915772;29;20071;-73
2024/03/21 05:23:58;;;;;;;7.60;5.30;;;10.80;96.70;;;;;;4932263;29;20146;-72
2024/03/21 05:26:26;;;;;;;6.43;4.40;;;10.80;96.70;;;;;;4932392;29;20110;-73
2024/03/21 05:28:54;;;;;;;7.22;4.72;;;10.80;96.70;;;;;;4947240;29;20697;-74
2024/03/21 05:31:25;;;;;;;7.38;4.85;;;11.00;96.70;;;;;;4932223;29;20051;-73
2024/03/21 05:33:54;;;;;;;7.35;5.00;;;11.00;96.70;;;;;;4915968;29;20106;-72
2024/03/21 05:36:22;;;;;;;5.95;4.90;;;10.90;96.70;;;;;;4913057;29;20517;-73
2024/03/21 05:38:53;;;;;;;8.13;5.10;;;10.90;96.70;;;;;;4900765;29;20082;-74
2024/03/21 05:41:20;;;;;;;5.65;4.47;;;10.90;96.70;;;;;;4917090;29;20084;-73
2024/03/21 05:43:48;;;;;;;5.88;5.15;;;10.90;96.70;;;;;;4934714;29;20043;-73
2024/03/21 05:46:16;;;;;;;8.73;5.05;;;10.90;96.70;;;;;;4931718;29;20051;-73
2024/03/21 05:48:45;;;;;;;6.75;5.05;;;10.90;96.70;;;;;;4916380;29;20047;-73
2024/03/21 05:51:13;;;;;;;9.25;5.80;;;10.90;96.70;;;;;;4915913;29;20079;-73
2024/03/21 05:53:41;;;;;;;7.60;4.72;;;11.00;96.70;;;;;;4902018;29;20147;-74
2024/03/21 05:56:08;;;;;;;10.27;6.03;;;11.10;96.70;;;;;;4932853;29;20205;-73
2024/03/21 05:58:36;;;;;;;11.65;6.47;;;11.00;96.70;;;;;;4932439;29;20138;-74
2024/03/21 06:03:35;;;;;;;13.95;6.20;;;11.20;96.70;;;;;;4931703;29;20571;-73
2024/03/21 06:06:06;;;;;;;6.70;5.38;;;11.20;96.70;;;;;;4916498;29;20092;-73
2024/03/21 06:08:35;;;;;;;10.55;5.85;;;11.20;96.70;;;;;;4932256;29;20055;-73
2024/03/21 06:11:07;;;;;;;9.57;6.18;;;11.20;96.70;;;;;;4932553;29;20071;-73
2024/03/21 06:13:35;;;;;;;10.60;6.05;;;11.20;96.70;;;;;;4932569;29;20079;-74
2024/03/21 06:16:02;;;;;;;8.65;6.00;;;11.20;96.70;;;;;;4916597;29;20125;-74
2024/03/21 06:18:30;;;;;;;8.48;6.18;;;11.30;96.70;;;;;;4916498;29;20143;-73
2024/03/21 06:20:57;;;;;;;9.02;6.05;;;11.30;96.70;;;;;;4931800;29;20526;-73
2024/03/21 06:23:28;;;;;;;7.63;5.40;;;11.20;96.70;;;;;;4945489;28;20110;-74
2024/03/21 06:25:59;;;;;;;5.88;4.25;;;11.20;96.70;;;;;;4926339;29;20055;-73
2024/03/21 06:28:26;;;;;;;4.68;4.18;;;11.20;96.70;;;;;;4916447;29;20060;-74
2024/03/21 06:30:54;;;;;;;6.55;4.75;;;11.30;96.70;;;;;;4927422;29;20039;-73
2024/03/21 06:33:23;;;;;;;8.75;5.18;;;11.40;96.70;;;;;;4911909;29;20059;-73
2024/03/21 06:35:52;;;;;;;6.78;4.60;;;11.40;96.70;;;;;;4931151;29;20435;-73
2024/03/21 06:38:19;;;;;;;6.53;4.30;;;11.50;96.70;;;;;;4908692;29;20051;-74
2024/03/21 06:40:49;;;;;;;6.50;4.05;;;11.60;96.70;;;;;;4931835;29;20050;-73
2024/03/21 06:43:18;;;;;;;7.15;4.18;;;11.70;96.70;;;;;;4915373;29;20054;-74
2024/03/21 06:45:53;;;;;;;6.47;4.30;;;11.80;96.70;;;;;;4915509;29;20047;-73
2024/03/21 06:48:24;;;;;;;5.00;4.50;;;12.00;96.70;;;;;;4932018;29;20116;-73
2024/03/21 06:50:52;;;;;;;6.53;5.35;;;12.00;96.70;;;;;;4928999;29;20052;-74
2024/03/21 06:53:20;;;;;;;7.85;5.47;;;12.00;96.70;;;;;;4945289;29;20105;-74
2024/03/21 06:55:54;;;;;;;7.07;5.25;;;12.10;96.70;;;;;;4926366;29;20116;-73
2024/03/21 06:58:23;;;;;;;7.30;5.22;;;12.20;96.70;;;;;;4914820;29;20071;-74
2024/03/21 07:00:53;;;;;;;9.60;5.25;;;12.30;96.70;;;;;;4910493;29;20160;-73
2024/03/21 07:03:22;;;;;;;7.63;5.32;;;12.30;96.70;;;;;;4931986;29;20500;-74
2024/03/21 07:05:51;;;;;;;7.03;5.07;;;12.30;96.70;;;;;;4913565;29;20102;-75
2024/03/21 07:08:20;;;;;;;7.90;5.32;;;12.30;96.70;;;;;;4927582;29;20051;-73
2024/03/21 07:10:49;;;;;;;9.43;5.65;;;12.40;96.70;;;;;;4903415;29;20047;-74
2024/03/21 07:13:20;;;;;;;6.63;5.55;;;12.40;96.70;;;;;;4914219;29;20644;-74
2024/03/21 07:15:49;;;;;;;9.10;6.15;;;12.50;96.70;;;;;;4942401;29;20063;-80
2024/03/21 07:18:17;;;;;;;13.48;7.15;;;12.70;96.70;;;;;;4928248;29;20051;-76
2024/03/21 07:20:53;;;;;;;10.23;7.03;;;12.80;96.70;;;;;;4919700;29;20050;-73
2024/03/21 07:23:23;;;;;;;9.98;6.47;;;12.80;96.70;;;;;;4899169;29;20135;-74
2024/03/21 07:25:51;;;;;;;10.30;6.35;;;12.80;96.70;;;;;;4930483;29;20057;-73
2024/03/21 07:28:23;;;;;;;11.85;6.90;;;12.90;96.70;;;;;;4914851;29;20059;-73
2024/03/21 07:30:54;;;;;;;10.65;6.28;;;13.00;96.70;;;;;;4924734;29;20048;-74
2024/03/21 07:33:21;;;;;;;9.35;6.13;;;13.10;96.70;;;;;;4931520;29;20576;-73
2024/03/21 07:35:54;;;;;;;9.93;6.78;;;13.10;96.70;;;;;;4930326;29;20075;-73
2024/03/21 07:38:24;;;;;;;8.27;6.40;;;13.20;96.70;;;;;;4899937;29;20051;-73
2024/03/21 07:40:55;;;;;;;7.00;6.00;;;13.30;96.70;;;;;;4903190;29;20047;-74
2024/03/21 07:43:27;;;;;;;7.10;5.70;;;13.40;96.70;;;;;;4922152;29;20461;-73
2024/03/21 07:45:57;;;;;;;8.55;6.93;;;13.50;96.70;;;;;;4923208;29;20062;-74
2024/03/21 07:48:24;;;;;;;10.55;6.50;;;13.50;96.70;;;;;;4915004;29;20062;-73
2024/03/21 07:50:54;;;;;;;12.10;6.85;;;13.60;96.70;;;;;;4931045;29;20113;-74
2024/03/21 07:53:25;;;;;;;8.63;7.05;;;13.80;96.70;;;;;;4915192;29;20146;-74
2024/03/21 07:55:55;;;;;;;10.35;7.18;;;13.90;96.70;;;;;;4915054;29;20114;-74
2024/03/21 07:58:23;;;;;;;9.65;7.32;;;14.00;96.70;;;;;;4914943;29;20047;-73
2024/03/21 08:00:54;;;;;;;10.45;7.45;;;14.00;96.70;;;;;;4909914;29;20134;-72
2024/03/21 08:03:22;;;;;;;12.43;8.27;;;14.10;96.70;;;;;;4930514;29;20061;-73
2024/03/21 08:05:51;;;;;;;9.93;7.78;;;14.10;96.70;;;;;;4914843;29;20142;-72
2024/03/21 08:08:19;;;;;;;11.55;7.40;;;14.20;96.70;;;;;;4930234;29;20075;-73
2024/03/21 08:10:46;;;;;;;9.73;7.80;;;14.20;96.70;;;;;;4899695;29;20035;-73
2024/03/21 08:13:14;;;;;;;9.05;6.97;;;14.20;96.70;;;;;;4915775;29;20517;-73
2024/03/21 08:15:43;;;;;;;10.82;7.57;;;14.10;96.70;;;;;;4931007;29;20051;-73
2024/03/21 08:18:13;;;;;;;10.45;7.43;;;14.20;96.70;;;;;;4930770;29;20043;-73
2024/03/21 08:20:45;;;;;;;11.30;7.43;;;14.20;96.70;;;;;;4930781;29;20070;-73
2024/03/21 08:23:14;;;;;;;11.20;7.43;;;14.20;96.70;;;;;;4923813;29;20063;-72
2024/03/21 08:25:41;;;;;;;9.85;6.97;;;14.20;96.70;;;;;;4930700;29;20397;-72
2024/03/21 08:28:08;;;;;;;11.10;7.57;;;14.20;96.70;;;;;;4930381;29;20062;-73
2024/03/21 08:30:36;;;;;;;12.10;7.55;;;14.30;96.70;;;;;;4926637;29;20048;-73
2024/03/21 08:33:04;;;;;;;12.57;8.13;;;14.40;96.70;;;;;;4932253;28;20054;-72
2024/03/21 08:35:33;;;;;;;10.82;8.20;;;14.50;96.70;;;;;;4914991;29;20470;-73
2024/03/21 08:38:00;;;;;;;11.52;8.23;;;14.70;96.70;;;;;;4910651;29;20053;-73
2024/03/21 08:40:29;;;;;;;12.43;8.65;;;14.60;96.70;;;;;;4930371;29;20058;-73
2024/03/21 08:42:56;;;;;;;13.75;9.07;;;14.50;96.70;;;;;;4930488;29;20047;-73
2024/03/21 08:45:23;;;;;;;12.07;9.30;;;14.70;96.70;;;;;;4915073;29;20520;-73
2024/03/21 08:47:51;;;;;;;14.52;11.07;;;14.80;96.70;;;;;;4919092;29;20067;-73
2024/03/21 08:50:19;;;;;;;15.07;10.63;;;14.90;96.70;;;;;;4917128;29;20050;-74
2024/03/21 08:52:49;;;;;;;15.63;10.45;;;14.90;96.70;;;;;;4933256;29;20568;-73
2024/03/21 08:55:16;;;;;;;16.55;11.07;;;15.00;96.70;;;;;;4922305;29;20058;-74
2024/03/21 08:57:44;;;;;;;13.95;10.85;;;15.00;96.70;;;;;;4943446;29;20062;-73
2024/03/21 09:00:14;;;;;;;14.13;10.75;;;15.10;96.70;;;;;;4947933;29;20058;-74
2024/03/21 09:02:43;;;;;;;13.77;10.98;;;15.20;96.70;;;;;;4934483;29;20065;-74
2024/03/21 09:05:13;;;;;;;16.42;10.75;;;15.30;96.70;;;;;;4933723;29;20055;-73
2024/03/21 09:07:42;;;;;;;14.65;12.30;;;15.40;96.70;;;;;;4917800;29;20142;-74
2024/03/21 09:10:12;;;;;;;15.65;11.85;;;15.60;96.70;;;;;;4917672;29;20194;-74
2024/03/21 09:12:43;;;;;;;16.60;12.02;;;15.70;96.70;;;;;;4932899;29;20051;-73
2024/03/21 09:15:12;;;;;;;15.70;10.95;;;15.60;96.70;;;;;;4932446;29;20054;-74
2024/03/21 09:17:41;;;;;;;13.82;10.40;;;15.50;96.70;;;;;;4917481;29;20051;-73
2024/03/21 09:20:08;;;;;;;15.43;11.15;;;15.50;96.70;;;;;;4932854;29;20139;-74
2024/03/21 09:22:38;;;;;;;14.15;10.88;;;15.50;96.70;;;;;;4924815;29;20058;-74
2024/03/21 09:25:07;;;;;;;15.77;11.40;;;15.50;96.70;;;;;;4917169;29;20058;-73
2024/03/21 09:27:37;;;;;;;16.73;12.40;;;15.60;96.70;;;;;;4932480;29;20481;-73
2024/03/21 09:30:08;;;;;;;19.10;12.07;;;15.70;96.70;;;;;;4917276;29;20051;-74
2024/03/21 09:32:36;;;;;;;12.95;10.75;;;15.70;96.70;;;;;;4916825;29;20054;-73
2024/03/21 09:35:07;;;;;;;13.90;11.20;;;15.60;96.70;;;;;;4932688;29;20106;-74
2024/03/21 09:37:36;;;;;;;14.18;10.48;;;15.70;96.70;;;;;;4932235;29;20150;-73
2024/03/21 09:40:06;;;;;;;12.52;9.90;;;15.80;96.70;;;;;;4916868;29;20062;-73
2024/03/21 09:42:34;;;;;;;13.68;10.55;;;16.00;96.70;;;;;;4909676;29;20055;-74
2024/03/21 09:45:05;;;;;;;13.57;10.80;;;16.10;96.70;;;;;;4917239;29;20051;-73
2024/03/21 09:47:36;;;;;;;12.50;10.20;;;16.20;96.70;;;;;;4916891;29;20078;-73
2024/03/21 09:50:08;;;;;;;13.82;10.90;;;16.30;96.70;;;;;;4932966;29;20059;-73
2024/03/21 09:52:35;;;;;;;13.05;10.43;;;16.40;96.70;;;;;;4913549;29;20058;-73
2024/03/21 09:55:06;;;;;;;14.18;11.32;;;16.50;96.70;;;;;;4893194;29;20143;-75
2024/03/21 09:57:35;;;;;;;13.57;11.25;;;16.70;96.70;;;;;;4947434;28;20110;-74
2024/03/21 10:00:06;;;;;;;14.35;10.52;;;16.90;96.70;;;;;;4932276;29;20172;-74
2024/03/21 10:02:33;;;;;;;12.48;10.02;;;16.90;96.70;;;;;;4916557;29;20055;-74
2024/03/21 10:05:05;;;;;;;12.77;10.10;;;16.90;96.70;;;;;;4908345;29;20810;-74
2024/03/21 10:07:35;;;;;;;12.43;9.85;;;17.00;96.70;;;;;;4923742;29;20063;-73
2024/03/21 10:10:05;;;;;;;11.05;9.25;;;17.10;96.70;;;;;;4910103;29;20059;-73
2024/03/21 10:12:32;;;;;;;13.60;9.85;;;17.30;96.70;;;;;;4932674;29;20089;-73
2024/03/21 10:15:00;;;;;;;12.13;9.60;;;17.40;96.70;;;;;;4932159;29;20070;-73
2024/03/21 10:17:29;;;;;;;9.27;7.97;;;17.50;96.70;;;;;;4913486;29;20174;-73
2024/03/21 10:19:59;;;;;;;9.40;7.72;;;17.60;96.70;;;;;;4900712;29;20130;-73
2024/03/21 10:22:26;;;;;;;7.63;6.82;;;17.70;96.70;;;;;;4916380;29;20106;-73
2024/03/21 10:24:55;;;;;;;7.07;5.95;;;17.80;96.70;;;;;;4931924;29;20081;-73
2024/03/21 10:27:22;;;;;;;5.82;5.07;;;17.90;96.70;;;;;;4916002;29;20126;-73
2024/03/21 10:29:52;;;;;;;6.50;5.75;;;18.00;96.70;;;;;;4916531;29;20051;-73
2024/03/21 10:32:22;;;;;;;6.20;4.18;;;18.10;96.70;;;;;;4931305;29;20138;-73
2024/03/21 10:34:53;;;;;;;5.57;4.18;;;18.00;96.70;;;;;;4916571;29;20059;-74
2024/03/21 10:37:22;;;;;;;4.28;3.30;;;18.10;96.70;;;;;;4915450;29;20054;-74
2024/03/21 10:39:52;;;;;;;4.28;3.13;;;18.20;96.70;;;;;;4915617;29;20058;-74
2024/03/21 10:42:25;;;;;;;5.20;3.10;;;18.50;96.70;;;;;;4931882;29;20452;-74
2024/03/21 10:44:55;;;;;;;5.88;3.97;;;18.50;96.70;;;;;;4917409;29;20474;-74
2024/03/21 10:47:25;;;;;;;4.93;3.50;;;18.60;96.70;;;;;;4910046;29;20063;-74
2024/03/21 10:49:54;;;;;;;4.00;3.45;;;18.60;96.70;;;;;;4927739;29;20557;-74
2024/03/21 10:52:24;;;;;;;3.78;3.35;;;18.60;96.70;;;;;;4931104;29;20047;-73
2024/03/21 10:54:55;;;;;;;3.92;3.30;;;18.70;96.70;;;;;;4915980;29;20063;-73
2024/03/21 10:57:27;;;;;;;4.50;3.25;;;18.80;96.70;;;;;;4907376;29;20072;-74
2024/03/21 11:00:04;;;;;;;4.38;3.25;;;18.80;96.70;;;;;;4930521;29;20047;-73
2024/03/21 11:02:39;;;;;;;6.22;3.67;;;18.90;96.70;;;;;;4931250;29;20113;-74
2024/03/21 11:05:13;;;;;;;5.80;4.07;;;18.90;96.70;;;;;;4914939;29;20077;-74
2024/03/21 11:07:42;;;;;;;6.55;4.07;;;19.00;96.70;;;;;;4900548;28;20142;-74
2024/03/21 11:10:17;;;;;;;5.22;3.55;;;19.10;96.70;;;;;;4900771;29;20304;-74
2024/03/21 11:12:48;;;;;;;4.55;3.83;;;19.20;96.70;;;;;;4900266;29;20047;-74
2024/03/21 11:15:16;;;;;;;4.40;3.70;;;19.30;96.70;;;;;;4899172;29;20075;-74
2024/03/21 11:17:45;;;;;;;4.32;3.70;;;19.30;96.70;;;;;;4906875;29;20143;-73
2024/03/21 11:20:16;;;;;;;5.18;3.65;;;19.50;96.70;;;;;;4915119;29;20059;-73
2024/03/21 11:22:44;;;;;;;5.22;3.70;;;19.30;96.70;;;;;;4930617;29;20055;-74
2024/03/21 11:25:12;;;;;;;4.38;3.35;;;19.40;96.70;;;;;;4930373;29;20101;-73
2024/03/21 11:27:42;;;;;;;4.05;3.20;;;19.60;96.70;;;;;;4931207;29;20252;-74
2024/03/21 11:30:10;;;;;;;4.47;3.30;;;19.60;96.70;;;;;;4925898;29;20062;-74
2024/03/21 11:32:41;;;;;;;6.10;3.05;;;19.40;96.70;;;;;;4931012;28;20040;-74
2024/03/21 11:35:10;;;;;;;4.10;3.20;;;19.40;96.70;;;;;;4937066;29;20051;-74
2024/03/21 11:37:41;;;;;;;4.13;3.22;;;19.60;96.70;;;;;;4930461;29;20055;-74
2024/03/21 11:40:11;;;;;;;4.55;3.28;;;19.80;96.70;;;;;;4915173;29;20078;-74
2024/03/21 11:42:41;;;;;;;3.03;2.72;;;19.80;96.70;;;;;;4930891;29;20075;-74
2024/03/21 11:45:14;;;;;;;4.38;3.50;;;19.90;96.70;;;;;;4915907;29;20055;-74
2024/03/21 11:47:41;;;;;;;4.57;3.47;;;20.10;96.70;;;;;;4928786;29;20047;-73
2024/03/21 11:50:10;;;;;;;3.55;3.13;;;20.10;96.70;;;;;;4930431;29;20055;-74
2024/03/21 11:52:42;;;;;;;4.03;3.40;;;20.20;96.70;;;;;;4930120;29;20047;-74
2024/03/21 11:55:09;;;;;;;4.18;2.83;;;20.20;96.70;;;;;;4927597;29;20047;-74
2024/03/21 11:57:39;;;;;;;6.25;3.42;;;20.20;96.70;;;;;;4930477;29;20152;-74
2024/03/21 12:00:08;;;;;;;4.63;2.80;;;20.40;96.70;;;;;;4926170;29;20161;-74
2024/03/21 12:02:40;;;;;;;3.58;3.00;;;20.30;96.70;;;;;;4911999;29;20058;-74
2024/03/21 12:05:08;;;;;;;4.80;3.00;;;20.40;96.70;;;;;;4911341;29;20083;-75
2024/03/21 12:07:41;;;;;;;3.58;3.28;;;20.40;96.70;;;;;;4930157;29;20050;-74
2024/03/21 12:10:13;;;;;;;4.93;3.50;;;20.50;96.70;;;;;;4929736;29;20055;-75
2024/03/21 12:12:41;;;;;;;4.72;3.00;;;20.40;96.70;;;;;;4913904;29;20134;-74
2024/03/21 12:15:10;;;;;;;3.67;3.25;;;20.30;96.70;;;;;;4926969;29;20047;-75
2024/03/21 12:17:38;;;;;;;4.25;3.45;;;20.40;96.70;;;;;;4929143;29;20722;-74
2024/03/21 12:20:06;;;;;;;3.97;2.90;;;20.30;96.70;;;;;;4945962;28;20612;-75
2024/03/21 12:22:34;;;;;;;4.03;3.10;;;20.10;96.70;;;;;;4925566;29;20054;-75
2024/03/21 12:25:01;;;;;;;2.47;2.03;;;19.90;96.70;;;;;;4917932;29;20063;-75
2024/03/21 12:27:31;;;;;;;3.85;1.90;;;20.00;96.70;;;;;;4933998;28;20047;-75
2024/03/21 12:29:59;;;;;;;2.75;1.80;;;20.20;96.70;;;;;;4916208;29;20114;-75
2024/03/21 12:32:26;;;;;;;4.63;2.90;;;20.60;96.70;;;;;;4933794;29;20066;-75
2024/03/21 12:34:54;;;;;;;4.10;2.05;;;20.80;96.70;;;;;;4932335;29;20107;-74
2024/03/21 12:37:21;;;;;;;2.78;2.00;;;20.90;96.70;;;;;;4933914;29;20077;-74
2024/03/21 12:39:48;;;;;;;5.45;2.17;;;20.80;96.70;;;;;;4934015;29;20142;-73
2024/03/21 12:42:17;;;;;;;3.85;1.73;;;20.90;96.70;;;;;;4933514;29;20500;-74
2024/03/21 12:44:48;;;;;;;1.90;1.50;;;20.70;96.70;;;;;;4931478;29;20058;-76
2024/03/21 12:47:18;;;;;;;3.05;1.98;;;20.80;96.70;;;;;;4894908;29;20066;-74
2024/03/21 12:49:48;;;;;;;3.15;1.80;;;20.60;96.70;;;;;;4917979;29;21064;-74
2024/03/21 12:52:16;;;;;;;5.85;2.80;;;20.40;96.70;;;;;;4933197;29;20097;-75
2024/03/21 12:54:44;;;;;;;3.28;1.90;;;20.30;96.70;;;;;;4918790;29;20063;-75
2024/03/21 12:57:12;;;;;;;4.65;2.10;;;20.40;96.70;;;;;;4934032;29;20047;-76